Chilhowie, Virginia
Current Conditions -  °F | °C
As of 8:15 PM on Sunday 23 Nov 2014 (Local Time) from KMKJ Reporting Station
Light Rain Light Rain  
Wind Chill: 53°   Ceiling: 1100
Heat Index: 53°   Visibility: 5mi
Dew Point: 50°   Wind: 12mph
Humidity: 91%   Direction: 110°ESE
Pressure: 29.76"   Gusts: 23mph
Location:  36.8°N, 81.68°W
Report Text: KMKJ 240115Z AUTO 11010G20KT 090V160 5SM -RA BKN011 OVC016 12/10 A2976 RMK AO2 P0001 T01160102
Loading
Personal Weather Stations






























Interactive Weather Map New forecast layout! Learn more

10-Day Weather Forecast

Advertisements
Track Severe Weather on mobile